createdAt,value
2018-07-16T00:00:09.193Z,6.75
2018-07-16T00:00:21.793Z,6.75
2018-07-16T00:00:34.213Z,6.75
2018-07-16T00:00:46.769Z,6.75
2018-07-16T00:00:59.170Z,6.75
2018-07-16T00:01:11.628Z,6.75
2018-07-16T00:01:24.043Z,6.75
2018-07-16T00:01:36.455Z,6.75
2018-07-16T00:01:49.046Z,6.75
2018-07-16T00:02:01.457Z,6.75
2018-07-16T00:02:13.877Z,6.75
2018-07-16T00:02:26.279Z,6.75
2018-07-16T00:02:38.684Z,6.75
2018-07-16T00:02:51.112Z,6.75
2018-07-16T00:03:03.537Z,6.75
2018-07-16T00:03:15.941Z,6.75
2018-07-16T00:03:28.348Z,6.75
2018-07-16T00:03:40.749Z,6.75
2018-07-16T00:03:53.134Z,6.75
2018-07-16T00:04:05.540Z,5.49
2018-07-16T00:04:17.945Z,5.49
2018-07-16T00:04:30.357Z,5.49
2018-07-16T00:04:42.766Z,5.49
2018-07-16T00:04:55.190Z,5.49
2018-07-16T00:05:07.617Z,5.49
2018-07-16T00:05:20.027Z,5.49
2018-07-16T00:05:32.433Z,5.49
2018-07-16T00:05:44.839Z,5.49
2018-07-16T00:05:57.259Z,5.49
2018-07-16T00:06:09.673Z,5.49
2018-07-16T00:06:22.098Z,5.49
2018-07-16T00:06:34.515Z,5.49
2018-07-16T00:06:46.917Z,5.49
2018-07-16T00:06:59.302Z,5.49
2018-07-16T00:07:11.715Z,5.49
2018-07-16T00:07:24.142Z,5.49
2018-07-16T00:07:36.559Z,5.49
2018-07-16T00:07:48.979Z,5.49
2018-07-16T00:08:01.376Z,5.49
2018-07-16T00:08:13.773Z,5.49
2018-07-16T00:08:26.168Z,5.49
2018-07-16T00:08:38.573Z,5.49
2018-07-16T00:08:50.970Z,5.49
2018-07-16T00:09:03.404Z,5.49
2018-07-16T00:09:15.801Z,5.49
2018-07-16T00:09:28.237Z,5.49
2018-07-16T00:09:40.627Z,5.49
2018-07-16T00:09:53.022Z,5.49
2018-07-16T00:10:05.417Z,5.49
2018-07-16T00:10:17.835Z,5.49
2018-07-16T00:10:30.247Z,5.49
2018-07-16T00:10:42.669Z,5.49
2018-07-16T00:10:55.078Z,5.49
2018-07-16T00:11:07.482Z,5.49
2018-07-16T00:11:19.901Z,5.49
2018-07-16T00:11:32.303Z,5.49
2018-07-16T00:11:44.722Z,5.49
2018-07-16T00:11:57.118Z,5.49
2018-07-16T00:12:09.519Z,5.49
2018-07-16T00:12:21.980Z,5.49
2018-07-16T00:12:34.590Z,5.49
2018-07-16T00:12:46.999Z,5.49
2018-07-16T00:12:59.519Z,5.49
2018-07-16T00:13:11.939Z,5.49
2018-07-16T00:13:24.345Z,5.49
2018-07-16T00:13:36.734Z,5.49
2018-07-16T00:13:49.120Z,5.49
2018-07-16T00:14:01.530Z,6.87
2018-07-16T00:14:13.928Z,6.87
2018-07-16T00:14:26.337Z,6.87
2018-07-16T00:14:39.161Z,6.87
2018-07-16T00:14:52.264Z,6.87
2018-07-16T00:15:04.668Z,6.87
2018-07-16T00:15:17.086Z,6.87
2018-07-16T00:15:29.499Z,6.87
2018-07-16T00:15:41.893Z,6.87
2018-07-16T00:15:54.301Z,6.87
2018-07-16T00:16:06.707Z,6.87
2018-07-16T00:16:19.111Z,6.87
2018-07-16T00:16:31.508Z,6.87
2018-07-16T00:16:43.907Z,6.87
2018-07-16T00:16:56.317Z,6.87
2018-07-16T00:17:08.731Z,6.87
2018-07-16T00:17:21.137Z,6.87
2018-07-16T00:17:33.542Z,6.87
2018-07-16T00:17:45.967Z,6.87
2018-07-16T00:17:58.420Z,6.87
2018-07-16T00:18:10.833Z,6.87
2018-07-16T00:18:23.263Z,6.87
2018-07-16T00:18:35.670Z,6.87
2018-07-16T00:18:48.137Z,6.87
2018-07-16T00:19:00.589Z,6.87
2018-07-16T00:19:12.992Z,6.87
2018-07-16T00:19:25.432Z,6.87
2018-07-16T00:19:37.827Z,6.87
2018-07-16T00:19:50.232Z,6.87
2018-07-16T00:20:02.629Z,6.87
2018-07-16T00:20:15.041Z,6.87
2018-07-16T00:20:27.464Z,6.87
2018-07-16T00:20:40.051Z,6.87
2018-07-16T00:20:52.439Z,6.87
2018-07-16T00:21:04.842Z,6.87
2018-07-16T00:21:17.290Z,6.87
2018-07-16T00:21:29.731Z,6.87
2018-07-16T00:21:42.117Z,6.87
2018-07-16T00:21:54.512Z,6.87
2018-07-16T00:22:06.930Z,6.87
2018-07-16T00:22:19.325Z,6.87
2018-07-16T00:22:31.761Z,6.87
2018-07-16T00:22:44.175Z,6.87
2018-07-16T00:22:56.630Z,6.87
2018-07-16T00:23:09.057Z,6.87
2018-07-16T00:23:21.545Z,6.87
2018-07-16T00:23:33.957Z,6.87
2018-07-16T00:23:46.367Z,6.87
2018-07-16T00:23:58.771Z,6.87
2018-07-16T00:24:11.180Z,9.7
2018-07-16T00:24:23.563Z,9.7
2018-07-16T00:24:35.990Z,9.7
2018-07-16T00:24:48.417Z,9.7
2018-07-16T00:25:00.823Z,9.7
2018-07-16T00:25:13.236Z,9.7
2018-07-16T00:25:25.699Z,9.7
2018-07-16T00:25:38.138Z,9.7
2018-07-16T00:25:50.542Z,9.7
2018-07-16T00:26:02.974Z,9.7
2018-07-16T00:26:15.394Z,9.7
2018-07-16T00:26:27.816Z,9.7
2018-07-16T00:26:40.235Z,9.7
2018-07-16T00:26:52.699Z,9.7
2018-07-16T00:27:05.103Z,9.7
2018-07-16T00:27:17.517Z,9.7
2018-07-16T00:27:29.910Z,9.7
2018-07-16T00:27:42.326Z,9.7
2018-07-16T00:27:54.754Z,9.7
2018-07-16T00:28:07.218Z,9.7
2018-07-16T00:28:19.614Z,9.7
2018-07-16T00:28:32.038Z,9.7
2018-07-16T00:28:44.446Z,9.7
2018-07-16T00:28:56.829Z,9.7
2018-07-16T00:29:09.275Z,9.7
2018-07-16T00:29:21.817Z,9.7
2018-07-16T00:29:34.235Z,9.7
2018-07-16T00:29:46.655Z,9.7
2018-07-16T00:29:59.037Z,9.7
2018-07-16T00:30:11.448Z,9.7
2018-07-16T00:30:23.851Z,9.7
2018-07-16T00:30:36.302Z,9.7
2018-07-16T00:30:48.706Z,9.7
2018-07-16T00:31:01.094Z,9.7
2018-07-16T00:31:13.685Z,9.7
2018-07-16T00:31:26.078Z,9.7
2018-07-16T00:31:38.480Z,9.7
2018-07-16T00:31:50.873Z,9.7
2018-07-16T00:32:03.285Z,9.7
2018-07-16T00:32:15.670Z,9.7
2018-07-16T00:32:28.070Z,9.7
2018-07-16T00:32:40.468Z,9.7
2018-07-16T00:32:52.874Z,9.7
2018-07-16T00:33:05.292Z,9.7
2018-07-16T00:33:17.695Z,9.7
2018-07-16T00:33:30.109Z,9.7
2018-07-16T00:33:42.510Z,9.7
2018-07-16T00:33:54.911Z,9.7
2018-07-16T00:34:07.326Z,9.32
2018-07-16T00:34:19.772Z,9.32
2018-07-16T00:34:32.191Z,9.32
2018-07-16T00:34:44.587Z,9.32
2018-07-16T00:34:56.982Z,9.32
2018-07-16T00:35:09.395Z,9.32
2018-07-16T00:35:21.796Z,9.32
2018-07-16T00:35:34.187Z,9.32
2018-07-16T00:35:46.607Z,9.32
2018-07-16T00:35:59.002Z,9.32
2018-07-16T00:36:11.419Z,9.32
2018-07-16T00:36:23.881Z,9.32
2018-07-16T00:36:36.294Z,9.32
2018-07-16T00:36:48.689Z,9.32
2018-07-16T00:37:01.077Z,9.32
2018-07-16T00:37:13.480Z,9.32
2018-07-16T00:37:25.885Z,9.32
2018-07-16T00:37:38.307Z,9.32
2018-07-16T00:37:50.750Z,9.32
2018-07-16T00:38:03.163Z,9.32
2018-07-16T00:38:15.545Z,9.32
2018-07-16T00:38:27.946Z,9.32
2018-07-16T00:38:40.342Z,9.32
2018-07-16T00:38:52.764Z,9.32
2018-07-16T00:39:05.169Z,9.32
2018-07-16T00:39:17.543Z,9.32
2018-07-16T00:39:29.923Z,9.32
2018-07-16T00:39:42.346Z,9.32
2018-07-16T00:39:54.762Z,9.32
2018-07-16T00:40:07.170Z,9.32
2018-07-16T00:40:19.589Z,9.32
2018-07-16T00:40:31.989Z,9.32
2018-07-16T00:40:44.382Z,9.32
2018-07-16T00:40:56.772Z,9.32
2018-07-16T00:41:09.190Z,9.32
2018-07-16T00:41:21.661Z,9.32
2018-07-16T00:41:34.048Z,9.32
2018-07-16T00:41:46.460Z,9.32
2018-07-16T00:41:58.850Z,9.32
2018-07-16T00:42:11.281Z,9.32
2018-07-16T00:42:23.672Z,9.32
2018-07-16T00:42:36.118Z,9.32
2018-07-16T00:42:48.522Z,9.32
2018-07-16T00:43:00.918Z,9.32
2018-07-16T00:43:13.327Z,9.32
2018-07-16T00:43:25.741Z,9.32
2018-07-16T00:43:38.144Z,9.32
2018-07-16T00:43:50.558Z,9.32
2018-07-16T00:44:02.964Z,10.04
2018-07-16T00:44:15.450Z,10.04
2018-07-16T00:44:28.891Z,10.04
2018-07-16T00:44:41.431Z,10.04
2018-07-16T00:44:53.958Z,10.04
2018-07-16T00:45:06.450Z,10.04
2018-07-16T00:45:18.873Z,10.04
2018-07-16T00:45:31.290Z,10.04
2018-07-16T00:45:43.699Z,10.04
2018-07-16T00:45:56.117Z,10.04
2018-07-16T00:46:08.559Z,10.04
2018-07-16T00:46:20.983Z,10.04
2018-07-16T00:46:33.414Z,10.04
2018-07-16T00:46:45.831Z,10.04
2018-07-16T00:46:58.248Z,10.04
2018-07-16T00:47:10.665Z,10.04
2018-07-16T00:47:23.064Z,10.04
2018-07-16T00:47:35.480Z,10.04
2018-07-16T00:47:47.889Z,10.04
2018-07-16T00:48:00.273Z,10.04
2018-07-16T00:48:12.692Z,10.04
2018-07-16T00:48:25.116Z,10.04
2018-07-16T00:48:37.592Z,10.04
2018-07-16T00:48:50.133Z,10.04
2018-07-16T00:49:02.536Z,10.04
2018-07-16T00:49:14.930Z,10.04
2018-07-16T00:49:27.332Z,10.04
2018-07-16T00:49:39.734Z,10.04
2018-07-16T00:49:52.156Z,10.04
2018-07-16T00:50:04.579Z,10.04
2018-07-16T00:50:17.051Z,10.04
2018-07-16T00:50:29.478Z,10.04
2018-07-16T00:50:41.904Z,10.04
2018-07-16T00:50:54.313Z,10.04
2018-07-16T00:51:06.746Z,10.04
2018-07-16T00:51:19.164Z,10.04
2018-07-16T00:51:31.612Z,10.04
2018-07-16T00:51:44.035Z,10.04
2018-07-16T00:51:56.480Z,10.04
2018-07-16T00:52:08.908Z,10.04
2018-07-16T00:52:21.313Z,10.04
2018-07-16T00:52:33.713Z,10.04
2018-07-16T00:52:46.116Z,10.04
2018-07-16T00:52:58.523Z,10.04
2018-07-16T00:53:10.940Z,10.04
2018-07-16T00:53:23.350Z,10.04
2018-07-16T00:53:35.745Z,10.04
2018-07-16T00:53:48.244Z,10.04
2018-07-16T00:54:00.798Z,10.04
2018-07-16T00:54:13.275Z,7.37
2018-07-16T00:54:25.851Z,7.37
2018-07-16T00:54:38.243Z,7.37
2018-07-16T00:54:50.646Z,7.37
2018-07-16T00:55:03.064Z,7.37
2018-07-16T00:55:15.474Z,7.37
2018-07-16T00:55:27.918Z,7.37
2018-07-16T00:55:40.476Z,7.37
2018-07-16T00:55:53.558Z,7.37
2018-07-16T00:56:06.012Z,7.37
2018-07-16T00:56:18.502Z,7.37
2018-07-16T00:56:31.733Z,7.37
2018-07-16T00:56:44.465Z,7.37
2018-07-16T00:56:56.890Z,7.37
2018-07-16T00:57:09.370Z,7.37
2018-07-16T00:57:22.008Z,7.37
2018-07-16T00:57:34.639Z,7.37
2018-07-16T00:57:47.090Z,7.37
2018-07-16T00:57:59.512Z,7.37
2018-07-16T00:58:11.914Z,7.37
2018-07-16T00:58:24.324Z,7.37
2018-07-16T00:58:36.820Z,7.37
2018-07-16T00:58:49.221Z,7.37
2018-07-16T00:59:01.765Z,7.37
2018-07-16T00:59:14.278Z,7.37
2018-07-16T00:59:26.688Z,7.37
2018-07-16T00:59:39.086Z,7.37
2018-07-16T00:59:51.489Z,7.37
2018-07-16T01:00:03.906Z,7.37
2018-07-16T01:00:16.477Z,7.37
2018-07-16T01:00:28.922Z,7.37
2018-07-16T01:00:41.375Z,7.37
2018-07-16T01:00:53.784Z,7.37
2018-07-16T01:01:06.206Z,7.37
2018-07-16T01:01:18.655Z,7.37
2018-07-16T01:01:31.083Z,7.37
2018-07-16T01:01:43.504Z,7.37
2018-07-16T01:01:56.128Z,7.37
2018-07-16T01:02:08.551Z,7.37
2018-07-16T01:02:21.001Z,7.37
2018-07-16T01:02:33.420Z,7.37
2018-07-16T01:02:45.838Z,7.37
2018-07-16T01:02:58.331Z,7.37
2018-07-16T01:03:10.804Z,7.37
2018-07-16T01:03:23.216Z,7.37
2018-07-16T01:03:35.618Z,7.37
2018-07-16T01:03:48.041Z,7.37
2018-07-16T01:04:00.444Z,7.37
2018-07-16T01:04:12.859Z,8.86
2018-07-16T01:04:25.276Z,8.86
2018-07-16T01:04:37.702Z,8.86
2018-07-16T01:04:50.116Z,8.86
2018-07-16T01:05:02.523Z,8.86
2018-07-16T01:05:14.974Z,8.86
2018-07-16T01:05:27.386Z,8.86
2018-07-16T01:05:39.882Z,8.86
2018-07-16T01:05:52.276Z,8.86
2018-07-16T01:06:04.701Z,8.86
2018-07-16T01:06:17.107Z,8.86
2018-07-16T01:06:29.521Z,8.86
2018-07-16T01:06:41.968Z,8.86
2018-07-16T01:06:54.388Z,8.86
2018-07-16T01:07:06.825Z,8.86
2018-07-16T01:07:19.252Z,8.86
2018-07-16T01:07:31.708Z,8.86
2018-07-16T01:07:44.112Z,8.86
2018-07-16T01:07:56.493Z,8.86
2018-07-16T01:08:08.934Z,8.86
2018-07-16T01:08:21.356Z,8.86
2018-07-16T01:08:33.785Z,8.86
2018-07-16T01:08:46.205Z,8.86
2018-07-16T01:08:58.617Z,8.86
2018-07-16T01:09:11.050Z,8.86
2018-07-16T01:09:23.440Z,8.86
2018-07-16T01:09:35.853Z,8.86
2018-07-16T01:09:48.249Z,8.86
2018-07-16T01:10:00.651Z,8.86
2018-07-16T01:10:13.080Z,8.86
2018-07-16T01:10:25.479Z,8.86
2018-07-16T01:10:37.938Z,8.86
2018-07-16T01:10:50.348Z,8.86
2018-07-16T01:11:02.753Z,8.86
2018-07-16T01:11:15.146Z,8.86
2018-07-16T01:11:27.546Z,8.86
2018-07-16T01:11:39.941Z,8.86
2018-07-16T01:11:52.359Z,8.86
2018-07-16T01:12:04.772Z,8.86
2018-07-16T01:12:17.158Z,8.86
2018-07-16T01:12:29.594Z,8.86
2018-07-16T01:12:42.008Z,8.86
2018-07-16T01:12:54.442Z,8.86
2018-07-16T01:13:07.031Z,8.86
2018-07-16T01:13:19.440Z,8.86
2018-07-16T01:13:31.907Z,8.86
2018-07-16T01:13:44.357Z,8.86
2018-07-16T01:13:56.785Z,8.86
2018-07-16T01:14:09.208Z,7.12
2018-07-16T01:14:21.605Z,7.12
2018-07-16T01:14:34.000Z,7.12
2018-07-16T01:14:46.397Z,7.12
2018-07-16T01:14:58.859Z,7.12
2018-07-16T01:15:11.269Z,7.12
2018-07-16T01:15:23.741Z,7.12
2018-07-16T01:15:36.207Z,7.12
2018-07-16T01:15:48.629Z,7.12
2018-07-16T01:16:01.023Z,7.12
2018-07-16T01:16:13.434Z,7.12
2018-07-16T01:16:25.837Z,7.12
2018-07-16T01:16:38.250Z,7.12
2018-07-16T01:16:50.665Z,7.12
2018-07-16T01:17:03.091Z,7.12
2018-07-16T01:17:15.536Z,7.12
2018-07-16T01:17:27.947Z,7.12
2018-07-16T01:17:40.342Z,7.12
2018-07-16T01:17:52.730Z,7.12
2018-07-16T01:18:05.174Z,7.12
2018-07-16T01:18:17.624Z,7.12
2018-07-16T01:18:30.034Z,7.12
2018-07-16T01:18:42.441Z,7.12
2018-07-16T01:18:54.848Z,7.12
2018-07-16T01:19:07.288Z,7.12
2018-07-16T01:19:19.712Z,7.12
2018-07-16T01:19:32.126Z,7.12
2018-07-16T01:19:44.547Z,7.12
2018-07-16T01:19:56.945Z,7.12
2018-07-16T01:20:09.342Z,7.12
2018-07-16T01:20:21.746Z,7.12
2018-07-16T01:20:34.342Z,7.12
2018-07-16T01:20:46.737Z,7.12
2018-07-16T01:20:59.145Z,7.12
2018-07-16T01:21:11.632Z,7.12
2018-07-16T01:21:24.050Z,7.12
2018-07-16T01:21:36.433Z,7.12
2018-07-16T01:21:48.835Z,7.12
2018-07-16T01:22:01.221Z,7.12
2018-07-16T01:22:13.667Z,7.12
2018-07-16T01:22:26.081Z,7.12
2018-07-16T01:22:38.487Z,7.12
2018-07-16T01:22:50.891Z,7.12
2018-07-16T01:23:03.294Z,7.12
2018-07-16T01:23:15.699Z,7.12
2018-07-16T01:23:28.101Z,7.12
2018-07-16T01:23:40.505Z,7.12
2018-07-16T01:23:52.898Z,7.12
2018-07-16T01:24:05.298Z,7.12
2018-07-16T01:24:17.708Z,8.21
2018-07-16T01:24:30.127Z,8.21
2018-07-16T01:24:42.566Z,8.21
2018-07-16T01:24:54.992Z,8.21
2018-07-16T01:25:07.482Z,8.21
2018-07-16T01:25:19.898Z,8.21
2018-07-16T01:25:32.327Z,8.21
2018-07-16T01:25:44.764Z,8.21
2018-07-16T01:25:57.155Z,8.21
2018-07-16T01:26:09.571Z,8.21
2018-07-16T01:26:21.984Z,8.21
2018-07-16T01:26:34.384Z,8.21
2018-07-16T01:26:46.820Z,8.21
2018-07-16T01:26:59.262Z,8.21
2018-07-16T01:27:11.655Z,8.21
2018-07-16T01:27:24.055Z,8.21
2018-07-16T01:27:36.470Z,8.21
2018-07-16T01:27:48.909Z,8.21
2018-07-16T01:28:01.331Z,8.21
2018-07-16T01:28:13.747Z,8.21
2018-07-16T01:28:26.181Z,8.21
2018-07-16T01:28:38.591Z,8.21
2018-07-16T01:28:50.994Z,8.21
2018-07-16T01:29:03.417Z,8.21
2018-07-16T01:29:15.966Z,8.21
2018-07-16T01:29:28.368Z,8.21
2018-07-16T01:29:40.783Z,8.21
2018-07-16T01:29:53.200Z,8.21
2018-07-16T01:30:05.638Z,8.21
2018-07-16T01:30:18.070Z,8.21
2018-07-16T01:30:30.473Z,8.21
2018-07-16T01:30:42.875Z,8.21
2018-07-16T01:30:55.269Z,8.21
2018-07-16T01:31:07.670Z,8.21
2018-07-16T01:31:20.243Z,8.21
2018-07-16T01:31:32.638Z,8.21
2018-07-16T01:31:45.044Z,8.21
2018-07-16T01:31:57.438Z,8.21
2018-07-16T01:32:09.823Z,8.21
2018-07-16T01:32:22.231Z,8.21
2018-07-16T01:32:34.643Z,8.21
2018-07-16T01:32:47.141Z,8.21
2018-07-16T01:32:59.543Z,8.21
2018-07-16T01:33:11.954Z,8.21
2018-07-16T01:33:24.347Z,8.21
2018-07-16T01:33:36.748Z,8.21
2018-07-16T01:33:49.146Z,8.21
2018-07-16T01:34:01.564Z,8.21
2018-07-16T01:34:13.956Z,9.98
2018-07-16T01:34:26.379Z,9.98
2018-07-16T01:34:38.805Z,9.98
2018-07-16T01:34:51.200Z,9.98
2018-07-16T01:35:03.603Z,9.98
2018-07-16T01:35:16.061Z,9.98
2018-07-16T01:35:28.471Z,9.98
2018-07-16T01:35:40.885Z,9.98
2018-07-16T01:35:53.273Z,9.98
2018-07-16T01:36:05.679Z,9.98
2018-07-16T01:36:18.117Z,9.98
2018-07-16T01:36:30.532Z,9.98
2018-07-16T01:36:42.932Z,9.98
2018-07-16T01:36:55.380Z,9.98
2018-07-16T01:37:07.781Z,9.98
2018-07-16T01:37:20.195Z,9.98
2018-07-16T01:37:32.614Z,9.98
2018-07-16T01:37:45.038Z,9.98
2018-07-16T01:37:57.452Z,9.98
2018-07-16T01:38:09.938Z,9.98
2018-07-16T01:38:22.350Z,9.98
2018-07-16T01:38:34.746Z,9.98
2018-07-16T01:38:47.184Z,9.98
2018-07-16T01:38:59.591Z,9.98
2018-07-16T01:39:12.061Z,9.98
2018-07-16T01:39:24.469Z,9.98
2018-07-16T01:39:36.891Z,9.98
2018-07-16T01:39:49.293Z,9.98
2018-07-16T01:40:01.717Z,9.98
2018-07-16T01:40:14.121Z,9.98
2018-07-16T01:40:26.525Z,9.98
2018-07-16T01:40:38.946Z,9.98
2018-07-16T01:40:51.349Z,9.98
2018-07-16T01:41:03.745Z,9.98
2018-07-16T01:41:16.159Z,9.98
2018-07-16T01:41:28.556Z,9.98
2018-07-16T01:41:40.948Z,9.98
2018-07-16T01:41:53.357Z,9.98
2018-07-16T01:42:05.760Z,9.98
2018-07-16T01:42:18.166Z,9.98
2018-07-16T01:42:30.579Z,9.98
2018-07-16T01:42:42.984Z,9.98
2018-07-16T01:42:55.393Z,9.98
2018-07-16T01:43:07.850Z,9.98
2018-07-16T01:43:20.259Z,9.98
2018-07-16T01:43:32.660Z,9.98
2018-07-16T01:43:45.075Z,9.98
2018-07-16T01:43:57.495Z,9.98
2018-07-16T01:44:09.912Z,9.48
2018-07-16T01:44:22.330Z,9.48
2018-07-16T01:44:34.752Z,9.48
2018-07-16T01:44:47.188Z,9.48
2018-07-16T01:44:59.975Z,9.48
2018-07-16T01:45:12.425Z,9.48
2018-07-16T01:45:24.858Z,9.48
2018-07-16T01:45:37.285Z,9.48
2018-07-16T01:45:49.699Z,9.48
2018-07-16T01:46:02.108Z,9.48
2018-07-16T01:46:14.529Z,9.48
2018-07-16T01:46:26.911Z,9.48
2018-07-16T01:46:39.306Z,9.48
2018-07-16T01:46:51.693Z,9.48
2018-07-16T01:47:04.097Z,9.48
2018-07-16T01:47:16.516Z,9.48
2018-07-16T01:47:28.936Z,9.48
2018-07-16T01:47:41.343Z,9.48
2018-07-16T01:47:53.744Z,9.48
2018-07-16T01:48:06.145Z,9.48
2018-07-16T01:48:18.545Z,9.48
2018-07-16T01:48:30.954Z,9.48
2018-07-16T01:48:43.464Z,9.48
2018-07-16T01:48:55.865Z,9.48
2018-07-16T01:49:08.261Z,9.48
2018-07-16T01:49:20.660Z,9.48
2018-07-16T01:49:33.067Z,9.48
2018-07-16T01:49:45.468Z,9.48
2018-07-16T01:49:57.884Z,9.48
2018-07-16T01:50:10.298Z,9.48
2018-07-16T01:50:22.717Z,9.48
2018-07-16T01:50:35.140Z,9.48
2018-07-16T01:50:47.554Z,9.48
2018-07-16T01:50:59.952Z,9.48
2018-07-16T01:51:12.394Z,9.48
2018-07-16T01:51:24.793Z,9.48
2018-07-16T01:51:37.251Z,9.48
2018-07-16T01:51:49.658Z,9.48
2018-07-16T01:52:02.049Z,9.48
2018-07-16T01:52:14.461Z,9.48
2018-07-16T01:52:26.885Z,9.48
2018-07-16T01:52:39.327Z,9.48
2018-07-16T01:52:51.752Z,9.48
2018-07-16T01:53:04.165Z,9.48
2018-07-16T01:53:16.555Z,9.48
2018-07-16T01:53:28.958Z,9.48
2018-07-16T01:53:41.409Z,9.48
2018-07-16T01:53:53.858Z,9.48
2018-07-16T01:54:06.429Z,9.48
2018-07-16T01:54:18.836Z,9.12
2018-07-16T01:54:31.259Z,9.12
2018-07-16T01:54:43.671Z,9.12
2018-07-16T01:54:56.239Z,9.12
2018-07-16T01:55:08.624Z,9.12
2018-07-16T01:55:21.017Z,9.12
2018-07-16T01:55:33.409Z,9.12
2018-07-16T01:55:45.823Z,9.12
2018-07-16T01:55:58.235Z,9.12
2018-07-16T01:56:10.696Z,9.12
2018-07-16T01:56:23.110Z,9.12
2018-07-16T01:56:35.511Z,9.12
2018-07-16T01:56:47.929Z,9.12
2018-07-16T01:57:00.347Z,9.12
2018-07-16T01:57:12.744Z,9.12
2018-07-16T01:57:25.182Z,9.12
2018-07-16T01:57:37.582Z,9.12
2018-07-16T01:57:49.994Z,9.12
2018-07-16T01:58:02.549Z,9.12
2018-07-16T01:58:14.960Z,9.12
2018-07-16T01:58:27.365Z,9.12
2018-07-16T01:58:39.773Z,9.12
2018-07-16T01:58:52.201Z,9.12
2018-07-16T01:59:04.600Z,9.12
2018-07-16T01:59:17.001Z,9.12
2018-07-16T01:59:29.393Z,9.12
2018-07-16T01:59:41.774Z,9.12
2018-07-16T01:59:54.172Z,9.12
2018-07-16T02:00:06.571Z,9.12
2018-07-16T02:00:19.197Z,9.12
2018-07-16T02:00:31.620Z,9.12
2018-07-16T02:00:44.040Z,9.12
2018-07-16T02:00:56.464Z,9.12
2018-07-16T02:01:08.955Z,9.12
2018-07-16T02:01:21.390Z,9.12
2018-07-16T02:01:33.813Z,9.12
2018-07-16T02:01:46.322Z,9.12
2018-07-16T02:01:58.739Z,9.12
2018-07-16T02:02:11.137Z,9.12
2018-07-16T02:02:23.571Z,9.12
2018-07-16T02:02:36.061Z,9.12
2018-07-16T02:02:48.465Z,9.12
2018-07-16T02:03:00.879Z,9.12
2018-07-16T02:03:13.282Z,9.12
2018-07-16T02:03:25.733Z,9.12
2018-07-16T02:03:38.208Z,9.12
2018-07-16T02:03:50.607Z,9.12
2018-07-16T02:04:03.016Z,9.12
2018-07-16T02:04:15.416Z,9.15
2018-07-16T02:04:27.859Z,9.15
2018-07-16T02:04:40.240Z,9.15
2018-07-16T02:04:52.630Z,9.15
2018-07-16T02:05:05.053Z,9.15
2018-07-16T02:05:17.463Z,9.15
2018-07-16T02:05:29.882Z,9.15
2018-07-16T02:05:42.321Z,9.15
2018-07-16T02:05:54.757Z,9.15
2018-07-16T02:06:07.176Z,9.15
2018-07-16T02:06:19.610Z,9.15
2018-07-16T02:06:32.014Z,9.15
2018-07-16T02:06:44.421Z,9.15
2018-07-16T02:06:56.884Z,9.15
2018-07-16T02:07:09.288Z,9.15
2018-07-16T02:07:21.694Z,9.15
2018-07-16T02:07:34.097Z,9.15
2018-07-16T02:07:46.487Z,9.15
2018-07-16T02:07:58.882Z,9.15
2018-07-16T02:08:11.368Z,9.15
2018-07-16T02:08:23.761Z,9.15
2018-07-16T02:08:36.205Z,9.15
2018-07-16T02:08:48.621Z,9.15
2018-07-16T02:09:01.028Z,9.15
2018-07-16T02:09:13.435Z,9.15
2018-07-16T02:09:25.828Z,9.15
2018-07-16T02:09:38.236Z,9.15
2018-07-16T02:09:50.639Z,9.15
2018-07-16T02:10:03.044Z,9.15
2018-07-16T02:10:15.458Z,9.15
2018-07-16T02:10:27.867Z,9.15
2018-07-16T02:10:40.274Z,9.15
2018-07-16T02:10:52.683Z,9.15
2018-07-16T02:11:05.106Z,9.15
2018-07-16T02:11:17.564Z,9.15
2018-07-16T02:11:30.009Z,9.15
2018-07-16T02:11:42.430Z,9.15
2018-07-16T02:11:54.828Z,9.15
2018-07-16T02:12:07.290Z,9.15
2018-07-16T02:12:19.713Z,9.15
2018-07-16T02:12:32.155Z,9.15
2018-07-16T02:12:44.609Z,9.15
2018-07-16T02:12:57.070Z,9.15
2018-07-16T02:13:09.495Z,9.15
2018-07-16T02:13:21.897Z,9.15
2018-07-16T02:13:34.311Z,9.15
2018-07-16T02:13:46.709Z,9.15
2018-07-16T02:13:59.190Z,9.15
2018-07-16T02:14:11.590Z,9.46
2018-07-16T02:14:23.987Z,9.46
2018-07-16T02:14:36.534Z,9.46
2018-07-16T02:14:48.935Z,9.46
2018-07-16T02:15:01.336Z,9.46
2018-07-16T02:15:13.761Z,9.46
2018-07-16T02:15:26.152Z,9.46
2018-07-16T02:15:38.565Z,9.46
2018-07-16T02:15:50.975Z,9.46
2018-07-16T02:16:03.374Z,9.46
2018-07-16T02:16:15.771Z,9.46
2018-07-16T02:16:28.162Z,9.46
2018-07-16T02:16:40.573Z,9.46
2018-07-16T02:16:52.962Z,9.46
2018-07-16T02:17:05.360Z,9.46
2018-07-16T02:17:17.801Z,9.46
2018-07-16T02:17:30.207Z,9.46
2018-07-16T02:17:42.620Z,9.46
2018-07-16T02:17:55.088Z,9.46
2018-07-16T02:18:07.498Z,9.46
2018-07-16T02:18:19.898Z,9.46
2018-07-16T02:18:32.284Z,9.46
2018-07-16T02:18:44.687Z,9.46
2018-07-16T02:18:57.087Z,9.46
2018-07-16T02:19:09.548Z,9.46
2018-07-16T02:19:21.937Z,9.46
2018-07-16T02:19:34.348Z,9.46
2018-07-16T02:19:46.800Z,9.46
2018-07-16T02:19:59.184Z,9.46
2018-07-16T02:20:11.635Z,9.46
2018-07-16T02:20:24.038Z,9.46
2018-07-16T02:20:36.600Z,9.46
2018-07-16T02:20:49.029Z,9.46
2018-07-16T02:21:01.453Z,9.46
2018-07-16T02:21:13.853Z,9.46
2018-07-16T02:21:26.256Z,9.46
2018-07-16T02:21:38.688Z,9.46
2018-07-16T02:21:51.087Z,9.46
2018-07-16T02:22:03.503Z,9.46
2018-07-16T02:22:15.896Z,9.46
2018-07-16T02:22:28.319Z,9.46
2018-07-16T02:22:40.711Z,9.46
2018-07-16T02:22:53.108Z,9.46
2018-07-16T02:23:05.529Z,9.46
2018-07-16T02:23:17.945Z,9.46
2018-07-16T02:23:30.329Z,9.46
2018-07-16T02:23:42.728Z,9.46
2018-07-16T02:23:55.127Z,9.46
2018-07-16T02:24:07.560Z,9.46
2018-07-16T02:24:19.958Z,9.69
2018-07-16T02:24:32.369Z,9.69
2018-07-16T02:24:44.783Z,9.69
2018-07-16T02:24:57.203Z,9.69
2018-07-16T02:25:09.614Z,9.69
2018-07-16T02:25:22.036Z,9.69
2018-07-16T02:25:34.530Z,9.69
2018-07-16T02:25:46.915Z,9.69
2018-07-16T02:25:59.297Z,9.69
2018-07-16T02:26:11.720Z,9.69
2018-07-16T02:26:24.109Z,9.69
2018-07-16T02:26:36.503Z,9.69
2018-07-16T02:26:48.911Z,9.69
2018-07-16T02:27:01.325Z,9.69
2018-07-16T02:27:13.741Z,9.69
2018-07-16T02:27:26.133Z,9.69
2018-07-16T02:27:38.522Z,9.69
2018-07-16T02:27:50.946Z,9.69
2018-07-16T02:28:03.348Z,9.69
2018-07-16T02:28:15.891Z,9.69
2018-07-16T02:28:28.272Z,9.69
2018-07-16T02:28:40.653Z,9.69
2018-07-16T02:28:53.074Z,9.69
2018-07-16T02:29:05.468Z,9.69
2018-07-16T02:29:18.002Z,9.69
2018-07-16T02:29:30.481Z,9.69
2018-07-16T02:29:42.887Z,9.69
2018-07-16T02:29:55.276Z,9.69
2018-07-16T02:30:07.688Z,9.69
2018-07-16T02:30:20.133Z,9.69
2018-07-16T02:30:32.787Z,9.69
2018-07-16T02:30:45.210Z,9.69
2018-07-16T02:30:57.629Z,9.69
2018-07-16T02:31:10.066Z,9.69
2018-07-16T02:31:22.784Z,9.69
2018-07-16T02:31:35.232Z,9.69
2018-07-16T02:31:47.652Z,9.69
2018-07-16T02:32:00.070Z,9.69
2018-07-16T02:32:12.482Z,9.69
2018-07-16T02:32:24.910Z,9.69
2018-07-16T02:32:37.389Z,9.69
2018-07-16T02:32:49.847Z,9.69
2018-07-16T02:33:02.291Z,9.69
2018-07-16T02:33:14.761Z,9.69
2018-07-16T02:33:27.179Z,9.69
2018-07-16T02:33:39.620Z,9.69
2018-07-16T02:33:52.030Z,9.69
2018-07-16T02:34:04.447Z,9.69
2018-07-16T02:34:16.885Z,12.17
2018-07-16T02:34:29.376Z,12.17
2018-07-16T02:34:41.817Z,12.17
2018-07-16T02:34:54.263Z,12.17
2018-07-16T02:35:06.667Z,12.17
2018-07-16T02:35:19.077Z,12.17
2018-07-16T02:35:31.479Z,12.17
2018-07-16T02:35:43.917Z,12.17
2018-07-16T02:35:56.364Z,12.17
2018-07-16T02:36:08.870Z,12.17
2018-07-16T02:36:21.296Z,12.17
2018-07-16T02:36:33.796Z,12.17
2018-07-16T02:36:46.216Z,12.17
2018-07-16T02:36:58.632Z,12.17
2018-07-16T02:37:11.091Z,12.17
2018-07-16T02:37:23.553Z,12.17
2018-07-16T02:37:35.992Z,12.17
2018-07-16T02:37:48.404Z,12.17
2018-07-16T02:38:00.793Z,12.17
2018-07-16T02:38:13.240Z,12.17
2018-07-16T02:38:25.649Z,12.17
2018-07-16T02:38:38.150Z,12.17
2018-07-16T02:38:50.742Z,12.17
2018-07-16T02:39:03.160Z,12.17
2018-07-16T02:39:15.585Z,12.17
2018-07-16T02:39:28.006Z,12.17
2018-07-16T02:39:40.430Z,12.17
2018-07-16T02:39:52.853Z,12.17
2018-07-16T02:40:05.270Z,12.17
2018-07-16T02:40:17.760Z,12.17
2018-07-16T02:40:30.196Z,12.17
2018-07-16T02:40:42.698Z,12.17
2018-07-16T02:40:55.149Z,12.17
2018-07-16T02:41:07.644Z,12.17
2018-07-16T02:41:20.061Z,12.17
2018-07-16T02:41:32.468Z,12.17
2018-07-16T02:41:44.909Z,12.17
2018-07-16T02:41:57.352Z,12.17
2018-07-16T02:42:09.836Z,12.17
2018-07-16T02:42:22.274Z,12.17
2018-07-16T02:42:34.768Z,12.17
2018-07-16T02:42:47.213Z,12.17
2018-07-16T02:42:59.651Z,12.17
2018-07-16T02:43:12.096Z,12.17
2018-07-16T02:43:24.531Z,12.17
2018-07-16T02:43:36.979Z,12.17
2018-07-16T02:43:49.433Z,12.17
2018-07-16T02:44:01.890Z,12.17
2018-07-16T02:44:14.336Z,11.52
2018-07-16T02:44:26.761Z,11.52
2018-07-16T02:44:39.183Z,11.52
2018-07-16T02:44:51.596Z,11.52
2018-07-16T02:45:04.030Z,11.52